Hlavní strana
METAR-TAF:

METAR-TAF

Letiště :

Qamishli, Sýrie

zeměpisná šířka: 37-03N, zeměpisná délka: 041-13E, výška: 455 m

Aktuální stav počasí

Zpráva byla vytvořena před 3 hodinami a 0 minutami, v 21:00 UTC
Severovýchodní vítr 12 kt
Teplota 9°C
Vlhkost vzduchu 76%
Tlak 1013 hPa
Polojasno ve výšce 2600 ft
Zataženo ve výšce 10000 ft

METAR: OSKL 122100Z 05012KT 8000RA SCT026 OVC100 09/05 Q1013

Čas: 02:00 (00:00 UTC)

Předpověď počasí

Zpráva byla vytvořena před 7 hodinami a 0 minutami, v 17:00 UTC
Předpověď platná od 12 v 18 UTC do 13 v 18 UTC
Jihojihovýchodní vítr 12 kt s nárazy do 25 kt
Viditelnost: 4000 m
Polojasno ve výšce 2600 ft, Cumulonimbus.
Oblačno až skoro zataženo ve výšce 10000 ft
bouřka, déšť
Dočasný
od 13 v 06 UTC do 13 v 18 UTC
Jihozápadní vítr 15 kt s nárazy do 25 kt
Viditelnost: 5000 m

TAF: OSKL 121700Z 1218/1318 15012G25KT 4000 TSRA SCT026CB S030 BKN100 TEMPO 1306/1318 23015G25KT 5000

Stav a předpovědi počasí z více než 4 000 letišť (zprávy METAR a TAF).

Červené a žluté tečky na mapě představují dostupné meteorologické stanice.

Když kurzor umístíte na tečku, zobrazí se název stanice.

Pak kliknutím zobrazíte stav a předpověď počasí.

Chcete-li změnit mapu, kliknutím na zelené tlačítko se znaménkem +mapu přiblížíte, kliknutím na zelené tlačítko se znaménkem – mapu oddálíte a kliknutím na zelené šipky přejdete na sousední mapy.


METAR-TAF: